Malacca — V7WP2 — position and weather

sailwx.info

Track history (hours):
 
Tides and Currents Weather Stations Pressure Air Temp Water Temp Dewpoint Dewpoint Depression Visibility Wind Speed Wind Dir Waves Ship Positions

Malacca

Last reported at 2017-Jun-09 00:45 UTC. Time now 2017-Sep-21 14:11 UTC.
Position N 31°59' E 120°21'.
Warning: this ship's position is months out of date.

Length 294 m; draft 8.7 m.

Type: Cargo ship. MMSI: 538004358.

Date/timePositionNaut miles runAvg speedWind from/ knotsBaromVisibWave heightAir tempDewpointWater temp
2017-Jun-09 00:45N 31°59' E 120°21'311.7
2017-Jun-09 00:30N 32°01' E 120°23'9 8.0
2017-Jun-08 23:21N 32°03' E 120°34'26 1.5
2017-Jun-08 06:08N 31°47' E 120°58'212.4
2017-Jun-08 05:59N 31°47' E 121°00'913.5
2017-Jun-08 05:20N 31°42' E 121°09'514.3
2017-Jun-08 05:01N 31°39' E 121°13'714.7
2017-Jun-08 04:31N 31°34' E 121°19'611.9
2017-Jun-08 04:00N 31°30' E 121°25'611.4
2017-Jun-08 03:30N 31°26' E 121°29'510.8
2017-Jun-08 03:00N 31°23' E 121°35'611.4
2017-Jun-08 02:30N 31°21' E 121°40'510.0
2017-Jun-08 02:00N 31°17' E 121°44'816.2
2017-Jun-08 01:30N 31°11' E 121°51'816.0
2017-Jun-08 01:00N 31°06' E 121°58'510.3
2017-Jun-08 00:30N 31°04' E 122°04'612.6
2017-Jun-08 00:00N 31°03' E 122°11'1013.6
2017-Jun-07 23:14N 31°02' E 122°23'413.2
2017-Jun-07 22:57N 31°01' E 122°28'613.1
2017-Jun-07 22:28N 30°60' E 122°35'  
2017-Jun-05 05:53N 31°14' E 123°06'1 2.7
2017-Jun-05 05:30N 31°14' E 123°07'4 8.2
2017-Jun-05 05:00N 31°12' E 123°11'510.7
2017-Jun-05 04:30N 31°08' E 123°16'2 4.2
2017-Jun-05 04:00N 31°06' E 123°16'4 8.4
2017-Jun-05 03:30N 31°01' E 123°15'714.7
2017-Jun-05 03:01N 30°54' E 123°15'4 7.7
2017-Jun-05 02:30N 30°50' E 123°16'6 7.6
2017-Jun-05 01:45N 30°54' E 123°11'0 1.9
2017-Jun-05 01:30N 30°54' E 123°11'4 8.4
2017-Jun-05 01:00N 30°58' E 123°13'1 1.3
2017-Jun-05 00:30N 30°58' E 123°12'714.8
2017-Jun-05 00:00N 30°51' E 123°13'5 9.0
2017-Jun-04 23:30N 30°55' E 123°13'715.0
2017-Jun-04 23:00N 30°48' E 123°15'815.8
2017-Jun-04 22:30N 30°40' E 123°15'815.6
2017-Jun-04 22:00N 30°32' E 123°15'815.3
2017-Jun-04 21:30N 30°25' E 123°15'1014.3
2017-Jun-04 20:49N 30°16' E 123°21'3115.7
2017-Jun-04 18:51N 29°57' E 123°49'615.4
2017-Jun-04 18:27N 29°53' E 123°55'715.4
2017-Jun-04 18:00N 29°49' E 124°01'1815.0
2017-Jun-04 16:49N 29°40' E 124°19'65 2.8
2017-Jun-03 17:36N 30°33' E 123°37'215.6
2017-Jun-03 17:30N 30°34' E 123°35'815.4
2017-Jun-03 17:00N 30°38' E 123°28'815.2
2017-Jun-03 16:30N 30°42' E 123°20'612.6
2017-Jun-03 16:00N 30°38' E 123°26'715.1
2017-Jun-03 15:31N 30°34' E 123°33'714.6
2017-Jun-03 15:00N 30°31' E 123°41'1211.2
2017-Jun-03 13:57N 30°26' E 123°54'715.0
2017-Jun-03 13:29N 30°30' E 123°47'714.8
2017-Jun-03 13:00N 30°33' E 123°39'714.6
2017-Jun-03 12:31N 30°37' E 123°32'710.3
2017-Jun-03 11:52N 30°34' E 123°39'2 2.8
2017-Jun-03 11:17N 30°33' E 123°37'413.7
2017-Jun-03 11:00N 30°35' E 123°33'612.8
2017-Jun-03 10:30N 30°38' E 123°27'510.9
2017-Jun-03 10:00N 30°35' E 123°33'1 2.2
2017-Jun-03 09:29N 30°34' E 123°33'5 8.4
2017-Jun-03 08:57N 30°37' E 123°29'511.9
2017-Jun-03 08:30N 30°34' E 123°34'0 1.0
2017-Jun-03 08:00N 30°34' E 123°33'5 4.4
2017-Jun-03 06:57N 30°36' E 123°29'4 8.8
2017-Jun-03 06:30N 30°38' E 123°24'713.0
2017-Jun-03 06:00N 30°41' E 123°18'3 1.0
2017-Jun-03 02:38N 30°44' E 123°18'0 2.0
2017-Jun-03 02:28N 30°45' E 123°18'2 3.0
2017-Jun-03 01:40N 30°47' E 123°16'1 6.5
2017-Jun-03 01:30N 30°47' E 123°15'4 7.3
2017-Jun-03 01:00N 30°49' E 123°12'3 5.6
2017-Jun-03 00:30N 30°51' E 123°09'5 9.5
2017-Jun-03 00:00N 30°53' E 123°04'714.4
2017-Jun-02 23:30N 30°56' E 122°57'713.4
2017-Jun-02 22:57N 31°01' E 122°50'3 1.0
2017-Jun-02 20:13N 31°02' E 122°47'0 0.0
2017-Jun-02 19:58N 31°02' E 122°47'0 0.0
2017-Jun-02 19:28N 31°02' E 122°47'0 0.0
2017-Jun-02 18:58N 31°02' E 122°47'0 0.1
2017-Jun-02 18:28N 31°02' E 122°47'0 0.1
2017-Jun-02 17:52N 31°02' E 122°47'0 0.1
2017-Jun-02 17:28N 31°02' E 122°47'0 0.1
2017-Jun-02 16:58N 31°02' E 122°47'0 0.1
2017-Jun-02 16:16N 31°02' E 122°47'0 0.0
2017-Jun-02 15:58N 31°02' E 122°47'0 0.1
2017-Jun-02 15:28N 31°02' E 122°47'0 0.0
2017-Jun-02 14:58N 31°02' E 122°47'0 0.1
2017-Jun-02 14:25N 31°02' E 122°47'0 0.0
2017-Jun-02 13:25N 31°02' E 122°47'0 0.1
2017-Jun-02 12:58N 31°02' E 122°47'0 0.1
2017-Jun-02 12:28N 31°02' E 122°47'0 0.1
2017-Jun-02 11:58N 31°02' E 122°47'0 0.0
2017-Jun-02 08:48N 31°02' E 122°47'0 0.4
2017-Jun-02 08:26N 31°02' E 122°47'3 7.4
2017-Jun-02 08:00N 31°01' E 122°50'5 9.2
2017-Jun-02 07:30N 30°58' E 122°55'611.7
2017-Jun-02 07:00N 30°58' E 122°48'510.7
2017-Jun-02 06:30N 30°58' E 122°42'510.2
2017-Jun-02 06:01N 30°58' E 122°36'5 9.0
2017-Jun-02 05:30N 30°59' E 122°31'610.6
2017-Jun-02 04:57N 31°01' E 122°24'812.2
2017-Jun-02 04:16N 31°03' E 122°15'312.0
2017-Jun-02 03:59N 31°03' E 122°11'612.7
2017-Jun-02 03:30N 31°04' E 122°04'612.6
2017-Jun-02 03:01N 31°06' E 121°57'815.4
2017-Jun-02 02:31N 31°11' E 121°50'815.7
2017-Jun-02 02:01N 31°17' E 121°44'612.7
2017-Jun-02 01:30N 31°21' E 121°38'612.0
2017-Jun-02 01:00N 31°24' E 121°32'611.7
2017-Jun-02 00:30N 31°28' E 121°27'611.6
2017-Jun-02 00:00N 31°32' E 121°22'612.0
2017-Jun-01 23:30N 31°36' E 121°17'612.4
2017-Jun-01 23:00N 31°40' E 121°12'612.0
2017-Jun-01 22:30N 31°44' E 121°06'  
Track history (hours):
 
Tides and Currents Weather Stations Pressure Air Temp Water Temp Dewpoint Dewpoint Depression Visibility Wind Speed Wind Dir Waves Ship Positions

Malacca

Last reported at 2017-Jun-09 00:45 UTC. Time now 2017-Sep-21 14:11 UTC.
Position N 31°59' E 120°21'.
Warning: this ship's position is months out of date.

Length 294 m; draft 8.7 m.

Type: Cargo ship. MMSI: 538004358.

Date/timePositionNaut miles runAvg speedWind from/ knotsBaromVisibWave heightAir tempDewpointWater temp
2017-Jun-09 00:45N 31°59' E 120°21'311.7
2017-Jun-09 00:30N 32°01' E 120°23'9 8.0
2017-Jun-08 23:21N 32°03' E 120°34'26 1.5
2017-Jun-08 06:08N 31°47' E 120°58'212.4
2017-Jun-08 05:59N 31°47' E 121°00'913.5
2017-Jun-08 05:20N 31°42' E 121°09'514.3
2017-Jun-08 05:01N 31°39' E 121°13'714.7
2017-Jun-08 04:31N 31°34' E 121°19'611.9
2017-Jun-08 04:00N 31°30' E 121°25'611.4
2017-Jun-08 03:30N 31°26' E 121°29'510.8
2017-Jun-08 03:00N 31°23' E 121°35'611.4
2017-Jun-08 02:30N 31°21' E 121°40'510.0
2017-Jun-08 02:00N 31°17' E 121°44'816.2
2017-Jun-08 01:30N 31°11' E 121°51'816.0
2017-Jun-08 01:00N 31°06' E 121°58'510.3
2017-Jun-08 00:30N 31°04' E 122°04'612.6
2017-Jun-08 00:00N 31°03' E 122°11'1013.6
2017-Jun-07 23:14N 31°02' E 122°23'413.2
2017-Jun-07 22:57N 31°01' E 122°28'613.1
2017-Jun-07 22:28N 30°60' E 122°35'  
2017-Jun-05 05:53N 31°14' E 123°06'1 2.7
2017-Jun-05 05:30N 31°14' E 123°07'4 8.2
2017-Jun-05 05:00N 31°12' E 123°11'510.7
2017-Jun-05 04:30N 31°08' E 123°16'2 4.2
2017-Jun-05 04:00N 31°06' E 123°16'4 8.4
2017-Jun-05 03:30N 31°01' E 123°15'714.7
2017-Jun-05 03:01N 30°54' E 123°15'4 7.7
2017-Jun-05 02:30N 30°50' E 123°16'6 7.6
2017-Jun-05 01:45N 30°54' E 123°11'0 1.9
2017-Jun-05 01:30N 30°54' E 123°11'4 8.4
2017-Jun-05 01:00N 30°58' E 123°13'1 1.3
2017-Jun-05 00:30N 30°58' E 123°12'714.8
2017-Jun-05 00:00N 30°51' E 123°13'5 9.0
2017-Jun-04 23:30N 30°55' E 123°13'715.0
2017-Jun-04 23:00N 30°48' E 123°15'815.8
2017-Jun-04 22:30N 30°40' E 123°15'815.6
2017-Jun-04 22:00N 30°32' E 123°15'815.3
2017-Jun-04 21:30N 30°25' E 123°15'1014.3
2017-Jun-04 20:49N 30°16' E 123°21'3115.7
2017-Jun-04 18:51N 29°57' E 123°49'615.4
2017-Jun-04 18:27N 29°53' E 123°55'715.4
2017-Jun-04 18:00N 29°49' E 124°01'1815.0
2017-Jun-04 16:49N 29°40' E 124°19'65 2.8
2017-Jun-03 17:36N 30°33' E 123°37'215.6
2017-Jun-03 17:30N 30°34' E 123°35'815.4
2017-Jun-03 17:00N 30°38' E 123°28'815.2
2017-Jun-03 16:30N 30°42' E 123°20'612.6
2017-Jun-03 16:00N 30°38' E 123°26'715.1
2017-Jun-03 15:31N 30°34' E 123°33'714.6
2017-Jun-03 15:00N 30°31' E 123°41'1211.2
2017-Jun-03 13:57N 30°26' E 123°54'715.0
2017-Jun-03 13:29N 30°30' E 123°47'714.8
2017-Jun-03 13:00N 30°33' E 123°39'714.6
2017-Jun-03 12:31N 30°37' E 123°32'710.3
2017-Jun-03 11:52N 30°34' E 123°39'2 2.8
2017-Jun-03 11:17N 30°33' E 123°37'413.7
2017-Jun-03 11:00N 30°35' E 123°33'612.8
2017-Jun-03 10:30N 30°38' E 123°27'510.9
2017-Jun-03 10:00N 30°35' E 123°33'1 2.2
2017-Jun-03 09:29N 30°34' E 123°33'5 8.4
2017-Jun-03 08:57N 30°37' E 123°29'511.9
2017-Jun-03 08:30N 30°34' E 123°34'0 1.0
2017-Jun-03 08:00N 30°34' E 123°33'5 4.4
2017-Jun-03 06:57N 30°36' E 123°29'4 8.8
2017-Jun-03 06:30N 30°38' E 123°24'713.0
2017-Jun-03 06:00N 30°41' E 123°18'3 1.0
2017-Jun-03 02:38N 30°44' E 123°18'0 2.0
2017-Jun-03 02:28N 30°45' E 123°18'2 3.0
2017-Jun-03 01:40N 30°47' E 123°16'1 6.5
2017-Jun-03 01:30N 30°47' E 123°15'4 7.3
2017-Jun-03 01:00N 30°49' E 123°12'3 5.6
2017-Jun-03 00:30N 30°51' E 123°09'5 9.5
2017-Jun-03 00:00N 30°53' E 123°04'714.4
2017-Jun-02 23:30N 30°56' E 122°57'713.4
2017-Jun-02 22:57N 31°01' E 122°50'3 1.0
2017-Jun-02 20:13N 31°02' E 122°47'0 0.0
2017-Jun-02 19:58N 31°02' E 122°47'0 0.0
2017-Jun-02 19:28N 31°02' E 122°47'0 0.0
2017-Jun-02 18:58N 31°02' E 122°47'0 0.1
2017-Jun-02 18:28N 31°02' E 122°47'0 0.1
2017-Jun-02 17:52N 31°02' E 122°47'0 0.1
2017-Jun-02 17:28N 31°02' E 122°47'0 0.1
2017-Jun-02 16:58N 31°02' E 122°47'0 0.1
2017-Jun-02 16:16N 31°02' E 122°47'0 0.0
2017-Jun-02 15:58N 31°02' E 122°47'0 0.1
2017-Jun-02 15:28N 31°02' E 122°47'0 0.0
2017-Jun-02 14:58N 31°02' E 122°47'0 0.1
2017-Jun-02 14:25N 31°02' E 122°47'0 0.0
2017-Jun-02 13:25N 31°02' E 122°47'0 0.1
2017-Jun-02 12:58N 31°02' E 122°47'0 0.1
2017-Jun-02 12:28N 31°02' E 122°47'0 0.1
2017-Jun-02 11:58N 31°02' E 122°47'0 0.0
2017-Jun-02 08:48N 31°02' E 122°47'0 0.4
2017-Jun-02 08:26N 31°02' E 122°47'3 7.4
2017-Jun-02 08:00N 31°01' E 122°50'5 9.2
2017-Jun-02 07:30N 30°58' E 122°55'611.7
2017-Jun-02 07:00N 30°58' E 122°48'510.7
2017-Jun-02 06:30N 30°58' E 122°42'510.2
2017-Jun-02 06:01N 30°58' E 122°36'5 9.0
2017-Jun-02 05:30N 30°59' E 122°31'610.6
2017-Jun-02 04:57N 31°01' E 122°24'812.2
2017-Jun-02 04:16N 31°03' E 122°15'312.0
2017-Jun-02 03:59N 31°03' E 122°11'612.7
2017-Jun-02 03:30N 31°04' E 122°04'612.6
2017-Jun-02 03:01N 31°06' E 121°57'815.4
2017-Jun-02 02:31N 31°11' E 121°50'815.7
2017-Jun-02 02:01N 31°17' E 121°44'612.7
2017-Jun-02 01:30N 31°21' E 121°38'612.0
2017-Jun-02 01:00N 31°24' E 121°32'611.7
2017-Jun-02 00:30N 31°28' E 121°27'611.6
2017-Jun-02 00:00N 31°32' E 121°22'612.0
2017-Jun-01 23:30N 31°36' E 121°17'612.4
2017-Jun-01 23:00N 31°40' E 121°12'612.0
2017-Jun-01 22:30N 31°44' E 121°06'  

Dump ship's entire track history